Time;durP1;ratioP1;P1;durP2;ratioP2;P2;SDS_P1;SDS_P2;PMS_P1;PMS_P2;Temp;Humidity;BMP_temperature;BMP_pressure;BME280_temperature;BME280_humidity;BME280_pressure;Samples;Min_cycle;Max_cycle;Signal;HPM_P1;HPM_P2
2023/01/27 00:00:47;;;;;;;;;;;;;;;8.00;70.90;97995.31;4977830;28;19918;-73
2023/01/27 00:03:12;;;;;;;;;;;;;;;8.02;70.56;98022.00;4977850;28;20405;-73
2023/01/27 00:05:38;;;;;;;;;;;;;;;8.01;71.04;98042.91;4961454;28;20004;-73
2023/01/27 00:08:03;;;;;;;;;;;;;;;8.02;71.02;98067.94;4961564;28;19922;-73
2023/01/27 00:10:29;;;;;;;;;;;;;;;8.02;70.80;98060.97;4977556;28;19953;-73
2023/01/27 00:15:38;;;;;;;;;;;;;;;8.02;70.81;98063.59;4980157;28;20353;-73
2023/01/27 00:18:03;;;;;;;;;;;;;;;8.03;70.94;98073.00;4977458;28;20000;-72
2023/01/27 00:26:01;;;;;;;;;;;;;;;8.03;71.10;98069.59;4994537;28;19925;-73
2023/01/27 00:28:30;;;;;;;;;;;;;;;8.02;71.05;98076.56;4977535;28;19929;-73
2023/01/27 00:30:55;;;;;;;;;;;;;;;8.03;70.90;98065.22;4977778;28;20377;-72
2023/01/27 00:33:23;;;;;;;;;;;;;;;8.03;70.87;98062.63;4977269;28;19924;-73
2023/01/27 00:35:49;;;;;;;;;;;;;;;8.04;70.81;98053.88;4960894;28;19968;-73
2023/01/27 00:38:14;;;;;;;;;;;;;;;8.06;71.06;98061.56;4976889;28;19957;-73
2023/01/27 00:41:13;;;;;;;;;;;;;;;8.04;70.88;98061.69;4976979;28;19917;-73
2023/01/27 00:43:24;;;;;;;;;;;;;;;8.05;71.21;98058.16;4979726;28;19918;-72
2023/01/27 00:45:51;;;;;;;;;;;;;;;8.05;70.84;98052.94;4976851;28;20432;-72
2023/01/27 00:48:16;;;;;;;;;;;;;;;8.03;71.26;98065.22;4994245;28;20413;-73
2023/01/27 00:50:42;;;;;;;;;;;;;;;8.03;71.20;98030.59;4976749;28;19961;-72
2023/01/27 00:53:07;;;;;;;;;;;;;;;8.03;70.69;98021.03;4977213;28;19918;-72
2023/01/27 00:55:32;;;;;;;;;;;;;;;8.04;71.26;98029.69;4976714;28;19972;-72
2023/01/27 00:57:58;;;;;;;;;;;;;;;8.04;71.06;98042.66;4976673;28;20000;-72
2023/01/27 01:00:23;;;;;;;;;;;;;;;8.06;70.93;98001.78;4960511;28;19918;-72
2023/01/27 01:02:48;;;;;;;;;;;;;;;8.06;71.07;97997.41;4993981;28;19918;-72
2023/01/27 01:05:14;;;;;;;;;;;;;;;8.08;71.06;98000.72;4960964;28;19921;-72
2023/01/27 01:07:39;;;;;;;;;;;;;;;8.07;71.17;98009.47;4960901;28;20309;-72
2023/01/27 01:10:04;;;;;;;;;;;;;;;8.07;71.13;98006.88;4976607;28;19918;-73
2023/01/27 01:12:30;;;;;;;;;;;;;;;8.08;71.20;98023.28;4976486;28;19917;-73
2023/01/27 01:14:55;;;;;;;;;;;;;;;8.07;71.18;98019.88;4960281;28;19968;-72
2023/01/27 01:17:20;;;;;;;;;;;;;;;8.08;71.31;98008.53;4993710;28;19922;-73
2023/01/27 01:19:46;;;;;;;;;;;;;;;8.08;71.16;98013.72;4993819;28;20351;-72
2023/01/27 01:22:11;;;;;;;;;;;;;;;8.09;70.85;97997.16;4960201;28;19948;-72
2023/01/27 01:24:36;;;;;;;;;;;;;;;8.10;70.99;98003.22;4975591;28;19976;-71
2023/01/27 01:27:02;;;;;;;;;;;;;;;8.10;71.29;98001.44;4976591;28;19972;-71
2023/01/27 01:29:27;;;;;;;;;;;;;;;8.11;71.17;98005.69;4976800;28;19918;-74
2023/01/27 01:31:52;;;;;;;;;;;;;;;8.13;71.22;98011.59;4993869;28;19925;-72
2023/01/27 01:34:17;;;;;;;;;;;;;;;8.12;71.20;97996.94;4993502;28;19965;-72
2023/01/27 01:36:43;;;;;;;;;;;;;;;8.13;71.06;97997.78;4975899;28;19924;-72
2023/01/27 01:39:08;;;;;;;;;;;;;;;8.12;71.04;98002.13;4993647;28;19917;-72
2023/01/27 01:41:33;;;;;;;;;;;;;;;8.12;71.34;97996.94;4976293;28;19922;-72
2023/01/27 01:44:16;;;;;;;;;;;;;;;8.11;71.30;97994.44;4959924;28;19918;-72
2023/01/27 01:46:41;;;;;;;;;;;;;;;8.12;71.43;97975.31;4975368;28;19918;-72
2023/01/27 01:49:07;;;;;;;;;;;;;;;8.10;71.41;97978.03;4975991;28;19924;-72
2023/01/27 01:51:38;;;;;;;;;;;;;;;8.11;71.45;97953.69;4959786;28;19976;-72
2023/01/27 01:54:12;;;;;;;;;;;;;;;8.11;71.05;97943.31;4960108;28;20320;-73
2023/01/27 01:56:44;;;;;;;;;;;;;;;8.12;71.35;97954.53;4993060;28;20004;-73
2023/01/27 01:59:11;;;;;;;;;;;;;;;8.12;71.19;97937.13;4975873;28;20013;-73
2023/01/27 02:01:36;;;;;;;;;;;;;;;8.11;71.32;97922.50;4976161;28;19983;-73
2023/01/27 02:04:03;;;;;;;;;;;;;;;8.13;71.40;97914.59;4993184;28;20382;-73
2023/01/27 02:06:28;;;;;;;;;;;;;;;8.13;71.39;97912.00;4976302;28;20004;-73
2023/01/27 02:08:54;;;;;;;;;;;;;;;8.13;71.30;97923.19;4975777;28;20017;-73
2023/01/27 02:11:19;;;;;;;;;;;;;;;8.11;71.76;97927.72;4959595;28;19918;-73
2023/01/27 02:13:44;;;;;;;;;;;;;;;8.13;71.05;97935.38;4975744;28;19918;-73
2023/01/27 02:16:10;;;;;;;;;;;;;;;8.12;71.32;97929.34;4976130;28;19980;-73
2023/01/27 02:18:36;;;;;;;;;;;;;;;8.14;71.29;97930.06;4975644;28;20404;-73
2023/01/27 02:21:01;;;;;;;;;;;;;;;8.15;71.54;97917.88;4975741;28;20017;-72
2023/01/27 02:23:31;;;;;;;;;;;;;;;8.15;71.26;97926.50;4975497;28;19930;-73
2023/01/27 02:26:15;;;;;;;;;;;;;;;8.17;71.53;97931.56;4975639;28;19929;-73
2023/01/27 02:28:41;;;;;;;;;;;;;;;8.15;71.71;97929.09;4975816;28;20332;-73
2023/01/27 02:31:06;;;;;;;;;;;;;;;8.15;71.46;97929.09;4975195;28;20053;-73
2023/01/27 02:33:31;;;;;;;;;;;;;;;8.15;71.53;97897.91;4975410;28;19972;-73
2023/01/27 02:35:59;;;;;;;;;;;;;;;8.18;71.62;97883.03;4993173;28;19918;-73
2023/01/27 02:38:27;;;;;;;;;;;;;;;8.17;71.32;97891.75;4992856;28;19933;-73
2023/01/27 02:40:52;;;;;;;;;;;;;;;8.18;71.58;97909.84;4975670;28;19918;-73
2023/01/27 02:43:18;;;;;;;;;;;;;;;8.17;71.26;97915.16;4975528;28;20016;-73
2023/01/27 02:45:44;;;;;;;;;;;;;;;8.18;71.44;97932.44;4959325;28;19918;-73
2023/01/27 02:48:10;;;;;;;;;;;;;;;8.19;71.62;97923.66;4959524;28;20340;-73
2023/01/27 02:50:35;;;;;;;;;;;;;;;8.18;72.01;97924.63;4993019;28;19922;-73
2023/01/27 02:53:00;;;;;;;;;;;;;;;8.20;71.15;97922.72;4975521;28;19918;-73
2023/01/27 02:55:26;;;;;;;;;;;;;;;8.21;71.57;97926.97;4992725;28;19929;-73
2023/01/27 02:57:51;;;;;;;;;;;;;;;8.21;71.13;97943.41;4977453;28;20364;-73
2023/01/27 03:00:17;;;;;;;;;;;;;;;8.23;71.32;97940.69;4978798;28;19918;-72
2023/01/27 03:02:42;;;;;;;;;;;;;;;8.23;71.17;97927.69;4979179;28;19968;-73
2023/01/27 03:05:07;;;;;;;;;;;;;;;8.23;71.47;97925.06;4962675;28;19918;-73
2023/01/27 03:07:33;;;;;;;;;;;;;;;8.23;71.47;97925.06;4978821;28;19917;-73
2023/01/27 03:09:58;;;;;;;;;;;;;;;8.23;71.69;97922.47;4978455;28;19917;-73
2023/01/27 03:12:23;;;;;;;;;;;;;;;8.23;71.51;97925.91;4962884;28;19922;-73
2023/01/27 03:20:16;;;;;;;;;;;;;;;8.22;71.72;97915.63;4981298;28;19984;-73
2023/01/27 03:22:42;;;;;;;;;;;;;;;8.23;71.47;97914.69;4996340;28;19921;-72
2023/01/27 03:25:07;;;;;;;;;;;;;;;8.23;71.60;97915.50;4996109;28;19925;-72
2023/01/27 03:27:33;;;;;;;;;;;;;;;8.23;71.85;97919.88;4995797;28;19968;-72
2023/01/27 03:29:58;;;;;;;;;;;;;;;8.23;71.15;97933.69;4978378;28;19933;-72
2023/01/27 03:32:24;;;;;;;;;;;;;;;8.24;71.23;97926.72;4995792;28;19917;-72
2023/01/27 03:34:50;;;;;;;;;;;;;;;8.25;71.69;97912.78;4978423;28;19918;-73
2023/01/27 03:48:11;;;;;;;;;;;;;;;8.26;71.53;97884.03;4980646;28;20017;-72
2023/01/27 03:50:37;;;;;;;;;;;;;;;8.28;71.46;97886.53;4978252;28;20386;-72
2023/01/27 03:53:03;;;;;;;;;;;;;;;8.27;71.71;97874.47;4978128;28;19918;-72
2023/01/27 03:55:31;;;;;;;;;;;;;;;8.27;71.33;97877.06;4977951;28;19921;-72
2023/01/27 03:58:04;;;;;;;;;;;;;;;8.26;71.61;97875.44;4961257;28;19924;-73
2023/01/27 04:00:31;;;;;;;;;;;;;;;8.27;71.49;97885.72;4979193;28;19917;-72
2023/01/27 04:08:24;;;;;;;;;;;;;;;8.30;71.30;97897.63;4994857;28;19944;-73
2023/01/27 04:11:53;;;;;;;;;;;;;;;8.30;71.57;97895.88;4977141;28;20012;-72
2023/01/27 04:13:35;;;;;;;;;;;;;;;8.29;71.57;97886.41;4994906;28;20346;-72
2023/01/27 04:16:00;;;;;;;;;;;;;;;8.30;71.22;97874.22;4977518;28;20024;-72
2023/01/27 04:18:25;;;;;;;;;;;;;;;8.29;71.68;97878.59;4977397;28;19929;-72
2023/01/27 04:20:51;;;;;;;;;;;;;;;8.30;71.26;97872.47;4994768;28;20385;-73
2023/01/27 04:23:16;;;;;;;;;;;;;;;8.32;71.06;97880.13;4961060;28;20015;-73
2023/01/27 04:25:41;;;;;;;;;;;;;;;8.31;71.11;97874.09;4977152;28;19918;-73
2023/01/27 04:28:06;;;;;;;;;;;;;;;8.33;71.35;97868.78;4977872;28;19922;-73
2023/01/27 04:30:32;;;;;;;;;;;;;;;8.35;71.20;97874.69;4977059;28;19917;-73
2023/01/27 04:33:05;;;;;;;;;;;;;;;8.35;71.38;97877.28;4994667;28;19925;-75
2023/01/27 04:35:30;;;;;;;;;;;;;;;8.35;71.32;97864.28;4978204;28;19918;-73
2023/01/27 04:37:55;;;;;;;;;;;;;;;8.37;71.12;97864.16;4977015;28;19925;-79
2023/01/27 04:40:21;;;;;;;;;;;;;;;8.38;71.10;97845.84;4976920;28;19926;-77
2023/01/27 04:42:46;;;;;;;;;;;;;;;8.42;73.02;97829.03;4994703;28;19981;-76
2023/01/27 04:45:11;;;;;;;;;;;;;;;8.54;75.08;97815.97;4976439;28;20309;-77
2023/01/27 04:47:36;;;;;;;;;;;;;;;8.59;75.70;97816.44;4976954;28;19949;-76
2023/01/27 04:50:02;;;;;;;;;;;;;;;8.92;79.03;97824.97;4994273;28;20004;-78
2023/01/27 04:52:27;;;;;;;;;;;;;;;8.97;77.64;97830.63;4994157;28;19922;-79
2023/01/27 04:54:53;;;;;;;;;;;;;;;8.96;75.40;97834.19;4994214;28;19924;-77
2023/01/27 04:57:19;;;;;;;;;;;;;;;8.92;74.41;97833.63;4976645;28;19918;-77
2023/01/27 04:59:44;;;;;;;;;;;;;;;8.93;73.85;97839.66;4994131;28;19917;-78
2023/01/27 05:02:09;;;;;;;;;;;;;;;8.88;73.25;97840.84;4960411;28;19917;-76
2023/01/27 05:04:34;;;;;;;;;;;;;;;8.88;72.84;97827.00;5004954;28;20000;-77
2023/01/27 05:07:01;;;;;;;;;;;;;;;8.87;72.69;97822.75;5013198;28;19967;-80
2023/01/27 05:09:26;;;;;;;;;;;;;;;8.84;72.49;97831.66;4979654;28;20113;-78
2023/01/27 05:11:52;;;;;;;;;;;;;;;8.98;75.77;97834.88;5017464;28;19962;-82
2023/01/27 05:14:18;;;;;;;;;;;;;;;9.07;76.17;97839.31;5004618;28;19917;-74
2023/01/27 05:16:43;;;;;;;;;;;;;;;9.06;74.77;97845.44;4995491;28;20019;-74
2023/01/27 05:19:09;;;;;;;;;;;;;;;9.05;75.62;97847.25;5012747;28;20016;-77
2023/01/27 05:21:34;;;;;;;;;;;;;;;9.26;77.52;97853.38;5011744;28;20008;-74
2023/01/27 05:24:00;;;;;;;;;;;;;;;9.31;75.83;97856.41;5013408;28;19924;-74
2023/01/27 05:26:26;;;;;;;;;;;;;;;9.29;74.77;97866.97;4995990;28;19918;-74
2023/01/27 05:28:51;;;;;;;;;;;;;;;9.26;73.74;97859.41;5012993;28;19917;-72
2023/01/27 05:31:20;;;;;;;;;;;;;;;9.23;73.41;97855.31;4995404;28;19984;-72
2023/01/27 05:33:46;;;;;;;;;;;;;;;9.20;73.07;97855.56;5012928;28;19917;-72
2023/01/27 05:36:12;;;;;;;;;;;;;;;9.20;72.61;97857.31;4979255;28;19953;-73
2023/01/27 05:38:37;;;;;;;;;;;;;;;9.16;72.75;97855.94;5013533;28;19964;-72
2023/01/27 05:41:04;;;;;;;;;;;;;;;9.12;72.67;97867.56;4995171;28;20435;-73
2023/01/27 05:43:29;;;;;;;;;;;;;;;9.11;72.42;97876.31;4995598;28;20286;-74
2023/01/27 05:46:07;;;;;;;;;;;;;;;9.07;72.58;97873.16;5012913;28;19924;-72
2023/01/27 05:48:36;;;;;;;;;;;;;;;9.07;72.35;97861.91;5013046;28;20395;-73
2023/01/27 05:51:01;;;;;;;;;;;;;;;9.04;72.39;97850.81;4995295;28;20008;-73
2023/01/27 05:53:26;;;;;;;;;;;;;;;9.02;72.32;97854.50;4978902;28;19953;-72
2023/01/27 05:55:52;;;;;;;;;;;;;;;9.00;72.43;97849.41;5012828;28;20376;-75
2023/01/27 05:58:17;;;;;;;;;;;;;;;9.01;72.63;97860.66;4995397;28;19918;-73
2023/01/27 06:00:43;;;;;;;;;;;;;;;9.01;72.50;97863.25;5011840;28;20308;-74
2023/01/27 06:03:08;;;;;;;;;;;;;;;9.00;72.29;97865.03;5010947;28;19917;-74
2023/01/27 06:05:35;;;;;;;;;;;;;;;8.99;72.39;97860.78;5013341;28;20408;-75
2023/01/27 06:08:00;;;;;;;;;;;;;;;8.98;72.32;97860.91;5013022;28;20448;-75
2023/01/27 06:10:25;;;;;;;;;;;;;;;9.00;72.22;97859.00;4995214;28;19921;-74
2023/01/27 06:12:50;;;;;;;;;;;;;;;8.99;72.25;97850.34;5012747;28;19917;-75
2023/01/27 06:15:16;;;;;;;;;;;;;;;9.01;72.25;97842.41;5012789;28;19953;-75
2023/01/27 06:17:41;;;;;;;;;;;;;;;9.01;72.13;97852.84;4995388;28;20380;-74
2023/01/27 06:20:07;;;;;;;;;;;;;;;9.01;72.13;97855.44;4994969;28;19925;-73
2023/01/27 06:22:32;;;;;;;;;;;;;;;9.01;72.05;97868.47;4994573;28;19917;-76
2023/01/27 06:24:57;;;;;;;;;;;;;;;8.99;72.04;97884.19;5013230;28;19968;-74
2023/01/27 06:27:23;;;;;;;;;;;;;;;8.99;71.81;97876.41;4995055;28;19918;-75
2023/01/27 06:29:48;;;;;;;;;;;;;;;9.01;71.97;97886.69;4995487;28;19917;-75
2023/01/27 06:32:13;;;;;;;;;;;;;;;9.02;71.87;97877.94;5013362;28;19925;-74
2023/01/27 06:34:38;;;;;;;;;;;;;;;9.02;71.75;97873.53;5016499;28;19921;-74
2023/01/27 06:37:04;;;;;;;;;;;;;;;9.02;71.75;97880.53;4982507;28;20426;-76
2023/01/27 06:39:29;;;;;;;;;;;;;;;9.01;71.67;97884.91;5016433;28;19917;-75
2023/01/27 06:41:54;;;;;;;;;;;;;;;9.01;71.80;97881.47;5016390;28;19923;-74
2023/01/27 06:44:19;;;;;;;;;;;;;;;8.99;71.77;97889.41;4999158;28;19940;-74
2023/01/27 06:46:45;;;;;;;;;;;;;;;9.01;71.32;97894.50;5016743;28;19917;-74
2023/01/27 06:49:10;;;;;;;;;;;;;;;8.99;71.65;97899.81;4998708;28;19917;-74
2023/01/27 06:51:35;;;;;;;;;;;;;;;8.99;71.59;97897.22;4998870;28;19928;-77
2023/01/27 06:54:01;;;;;;;;;;;;;;;8.99;71.68;97897.22;4998299;28;19952;-75
2023/01/27 06:56:26;;;;;;;;;;;;;;;8.99;71.68;97901.59;5016086;28;20403;-75
2023/01/27 06:58:51;;;;;;;;;;;;;;;8.99;71.80;97901.59;4981883;28;19918;-75
2023/01/27 07:01:17;;;;;;;;;;;;;;;9.00;71.57;97903.28;4998431;28;19918;-75
2023/01/27 07:03:42;;;;;;;;;;;;;;;9.00;71.69;97895.47;4981738;28;20381;-73
2023/01/27 07:06:09;;;;;;;;;;;;;;;9.00;71.58;97892.84;5015882;28;19924;-75
2023/01/27 07:08:35;;;;;;;;;;;;;;;8.99;71.58;97894.63;4998764;28;19925;-75
2023/01/27 07:11:03;;;;;;;;;;;;;;;9.01;71.56;97890.13;4998113;28;19921;-73
2023/01/27 07:13:29;;;;;;;;;;;;;;;9.01;71.61;97884.06;4981919;28;19917;-73
2023/01/27 07:15:55;;;;;;;;;;;;;;;9.04;71.32;97883.81;4997823;28;19918;-75
2023/01/27 07:18:20;;;;;;;;;;;;;;;9.05;71.46;97885.47;4998558;28;19925;-74
2023/01/27 07:20:45;;;;;;;;;;;;;;;9.06;71.10;97879.31;5015644;28;19921;-74
2023/01/27 07:23:11;;;;;;;;;;;;;;;9.07;71.35;97872.34;5015562;28;20013;-75
2023/01/27 07:25:37;;;;;;;;;;;;;;;9.09;71.20;97867.81;4998290;28;19925;-74
2023/01/27 07:28:03;;;;;;;;;;;;;;;9.11;71.22;97865.91;4997986;28;19917;-76
2023/01/27 07:30:28;;;;;;;;;;;;;;;9.12;71.04;97865.78;4997968;28;19918;-75
2023/01/27 07:32:56;;;;;;;;;;;;;;;9.14;71.09;97858.69;5015105;28;19917;-75
2023/01/27 07:35:22;;;;;;;;;;;;;;;9.15;70.75;97852.50;4981978;28;19917;-75
2023/01/27 07:37:47;;;;;;;;;;;;;;;9.20;70.81;97862.53;4981355;28;20005;-74
2023/01/27 07:40:12;;;;;;;;;;;;;;;9.20;70.68;97852.94;5015311;28;19917;-77
2023/01/27 07:42:38;;;;;;;;;;;;;;;9.22;70.51;97856.25;4981515;28;20340;-76
2023/01/27 07:45:04;;;;;;;;;;;;;;;9.24;70.42;97854.31;5014098;28;19932;-75
2023/01/27 07:47:29;;;;;;;;;;;;;;;9.27;70.42;97850.66;4997909;28;20503;-74
2023/01/27 07:49:54;;;;;;;;;;;;;;;9.27;70.35;97852.44;4997528;28;20420;-75
2023/01/27 07:52:19;;;;;;;;;;;;;;;9.29;70.37;97846.13;5014971;28;19930;-76
2023/01/27 07:54:45;;;;;;;;;;;;;;;9.31;70.33;97852.00;5015163;28;19917;-75
2023/01/27 07:57:10;;;;;;;;;;;;;;;9.32;70.21;97845.03;4997627;28;19917;-76
2023/01/27 07:59:35;;;;;;;;;;;;;;;9.36;70.02;97852.47;4997518;28;19922;-75
2023/01/27 08:02:01;;;;;;;;;;;;;;;9.35;70.16;97850.81;5015181;28;19917;-75
2023/01/27 08:04:26;;;;;;;;;;;;;;;9.39;70.14;97853.97;4997422;28;19943;-75
2023/01/27 08:06:51;;;;;;;;;;;;;;;9.37;70.09;97846.28;4997630;28;20369;-75
2023/01/27 08:09:16;;;;;;;;;;;;;;;9.39;69.93;97849.59;4997102;28;19944;-76
2023/01/27 08:11:42;;;;;;;;;;;;;;;9.40;69.93;97842.59;5014720;28;19917;-76
2023/01/27 08:14:07;;;;;;;;;;;;;;;9.43;69.70;97837.13;5014533;28;20362;-75
2023/01/27 08:16:32;;;;;;;;;;;;;;;9.44;69.79;97830.97;4996815;28;20013;-74
2023/01/27 08:18:58;;;;;;;;;;;;;;;9.46;69.77;97820.44;4996951;28;19983;-75
2023/01/27 08:21:24;;;;;;;;;;;;;;;9.48;69.78;97818.50;4997500;28;20278;-75
2023/01/27 08:23:49;;;;;;;;;;;;;;;9.50;69.70;97824.41;4996967;28;19956;-74
2023/01/27 08:26:14;;;;;;;;;;;;;;;9.50;69.61;97819.19;5014085;28;19964;-76
2023/01/27 08:28:40;;;;;;;;;;;;;;;9.51;69.59;97816.44;4980455;28;19917;-76
2023/01/27 08:31:15;;;;;;;;;;;;;;;9.53;69.53;97816.31;4979934;28;20060;-75
2023/01/27 08:33:40;;;;;;;;;;;;;;;9.54;69.45;97807.56;4996623;28;19992;-75
2023/01/27 08:36:15;;;;;;;;;;;;;;;9.57;69.56;97805.50;4980328;28;20016;-74
2023/01/27 08:38:40;;;;;;;;;;;;;;;9.58;69.46;97806.31;4996853;28;19917;-75
2023/01/27 08:41:12;;;;;;;;;;;;;;;9.60;69.35;97800.03;4996989;28;19936;-74
2023/01/27 08:43:38;;;;;;;;;;;;;;;9.64;69.40;97807.56;4996852;28;19917;-75
2023/01/27 08:46:03;;;;;;;;;;;;;;;9.64;69.43;97818.81;5014028;28;19924;-76
2023/01/27 08:48:30;;;;;;;;;;;;;;;9.67;69.44;97809.91;4980221;28;19918;-76
2023/01/27 08:50:55;;;;;;;;;;;;;;;9.68;69.47;97808.97;4980097;28;19918;-75
2023/01/27 08:53:21;;;;;;;;;;;;;;;9.68;69.44;97804.56;4996214;28;19924;-80
2023/01/27 08:55:46;;;;;;;;;;;;;;;9.71;69.39;97806.06;4979860;28;19933;-76
2023/01/27 08:58:11;;;;;;;;;;;;;;;9.72;69.35;97802.50;4996431;28;20395;-78
2023/01/27 09:00:37;;;;;;;;;;;;;;;9.73;69.35;97802.38;4980051;28;19921;-75
2023/01/27 09:03:02;;;;;;;;;;;;;;;9.74;69.29;97800.59;4979875;28;19967;-75
2023/01/27 09:05:27;;;;;;;;;;;;;;;9.72;69.28;97800.72;4996633;28;19917;-76
2023/01/27 09:07:53;;;;;;;;;;;;;;;9.72;69.21;97797.28;4996157;28;19968;-76
2023/01/27 09:10:18;;;;;;;;;;;;;;;9.72;69.37;97794.69;4995847;28;19918;-77
2023/01/27 09:12:43;;;;;;;;;;;;;;;9.73;69.37;97793.75;5013308;28;20317;-77
2023/01/27 09:15:09;;;;;;;;;;;;;;;9.74;69.27;97795.38;4980231;28;19921;-76
2023/01/27 09:17:35;;;;;;;;;;;;;;;9.74;69.12;97795.38;5013505;28;20389;-74
2023/01/27 09:20:00;;;;;;;;;;;;;;;9.74;69.08;97785.78;4979719;28;19930;-76
2023/01/27 09:22:25;;;;;;;;;;;;;;;9.75;69.16;97786.59;4979700;28;19928;-78
2023/01/27 09:24:51;;;;;;;;;;;;;;;9.76;69.42;97791.69;4979446;28;20385;-75
2023/01/27 09:27:16;;;;;;;;;;;;;;;9.76;69.20;97783.06;4996102;28;20442;-76
2023/01/27 09:29:41;;;;;;;;;;;;;;;9.76;69.19;97783.06;4979714;28;20313;-77
2023/01/27 09:32:08;;;;;;;;;;;;;;;9.76;69.28;97783.88;4995475;28;19917;-76
2023/01/27 09:34:33;;;;;;;;;;;;;;;9.76;69.10;97778.66;4995863;28;19921;-75
2023/01/27 09:37:00;;;;;;;;;;;;;;;9.76;69.36;97781.25;5013094;28;19968;-73
2023/01/27 09:39:25;;;;;;;;;;;;;;;9.74;69.23;97777.97;4995818;28;19956;-78
2023/01/27 09:41:57;;;;;;;;;;;;;;;9.74;69.38;97772.75;4995917;28;19963;-78
2023/01/27 09:44:41;;;;;;;;;;;;;;;9.75;69.28;97774.38;4995853;28;19918;-75
2023/01/27 09:47:13;;;;;;;;;;;;;;;9.76;68.98;97778.66;4995477;28;19921;-74
2023/01/27 09:49:51;;;;;;;;;;;;;;;9.77;68.95;97766.44;5012995;28;20352;-74
2023/01/27 09:52:43;;;;;;;;;;;;;;;9.78;69.26;97768.09;4995223;28;19921;-73
2023/01/27 09:55:08;;;;;;;;;;;;;;;9.78;69.06;97762.88;4975383;28;19991;-74
2023/01/27 09:57:39;;;;;;;;;;;;;;;9.79;68.99;97764.53;5012917;28;20320;-74
2023/01/27 10:00:13;;;;;;;;;;;;;;;9.80;69.14;97758.34;5012944;28;19976;-75
2023/01/27 10:02:57;;;;;;;;;;;;;;;9.81;69.13;97760.00;5012840;28;19948;-73
2023/01/27 10:05:31;;;;;;;;;;;;;;;9.81;68.88;97759.19;5013210;28;19917;-74
2023/01/27 10:08:11;;;;;;;;;;;;;;;9.82;69.07;97747.78;5014728;28;20356;-74
2023/01/27 10:10:43;;;;;;;;;;;;;;;9.85;69.01;97744.91;5016972;28;19921;-74
2023/01/27 10:13:12;;;;;;;;;;;;;;;9.87;68.97;97740.41;5016852;28;19917;-74
2023/01/27 10:15:40;;;;;;;;;;;;;;;9.90;68.77;97732.31;4999110;28;20380;-74
2023/01/27 10:18:08;;;;;;;;;;;;;;;9.90;68.97;97735.72;4998696;28;19929;-74
2023/01/27 10:20:36;;;;;;;;;;;;;;;9.90;69.13;97733.13;5017078;28;19926;-74
2023/01/27 10:23:08;;;;;;;;;;;;;;;9.92;68.91;97733.81;5017006;28;19976;-74
2023/01/27 10:25:36;;;;;;;;;;;;;;;9.90;69.10;97717.47;4999058;28;19924;-75
2023/01/27 10:28:05;;;;;;;;;;;;;;;9.93;68.72;97716.38;5016712;28;20004;-74
2023/01/27 10:30:34;;;;;;;;;;;;;;;9.94;68.83;97715.41;4999615;28;19957;-74
2023/01/27 10:33:10;;;;;;;;;;;;;;;9.96;68.66;97713.47;4999248;28;19965;-76
2023/01/27 10:35:56;;;;;;;;;;;;;;;9.98;68.62;97708.13;4999329;28;19924;-75
2023/01/27 10:38:38;;;;;;;;;;;;;;;9.99;68.82;97708.00;5015739;28;19924;-75
2023/01/27 10:41:10;;;;;;;;;;;;;;;10.00;68.46;97696.59;4998797;28;20281;-74
2023/01/27 10:43:44;;;;;;;;;;;;;;;10.02;68.58;97688.66;5016721;28;19972;-76
2023/01/27 10:46:19;;;;;;;;;;;;;;;10.03;68.61;97687.69;5016313;28;19957;-73
2023/01/27 10:48:47;;;;;;;;;;;;;;;10.02;68.67;97686.03;4999022;28;19976;-74
2023/01/27 10:51:18;;;;;;;;;;;;;;;10.00;68.58;97680.16;4998700;28;20369;-75
2023/01/27 10:53:48;;;;;;;;;;;;;;;10.00;68.90;97677.56;4982394;28;20391;-76
2023/01/27 10:56:26;;;;;;;;;;;;;;;9.96;68.98;97680.44;4999084;28;19918;-75
2023/01/27 10:58:55;;;;;;;;;;;;;;;9.96;68.64;97677.81;4982894;28;20020;-77
2023/01/27 11:01:24;;;;;;;;;;;;;;;9.95;68.83;97677.97;4998491;28;19924;-75
2023/01/27 11:04:00;;;;;;;;;;;;;;;9.92;69.00;97673.84;4982171;28;19925;-74
2023/01/27 11:06:31;;;;;;;;;;;;;;;9.90;68.99;97678.38;4982243;28;20365;-74
2023/01/27 11:09:29;;;;;;;;;;;;;;;9.89;69.11;97679.31;4998596;28;19921;-74
2023/01/27 11:11:57;;;;;;;;;;;;;;;9.87;68.98;97689.09;4901355;29;20383;-74
2023/01/27 11:14:29;;;;;;;;;;;;;;;9.84;68.98;97678.94;4885909;29;20355;-76
2023/01/27 11:16:59;;;;;;;;;;;;;;;9.82;68.93;97677.41;4901358;29;19945;-74
2023/01/27 11:19:28;;;;;;;;;;;;;;;9.82;69.18;97674.81;4901297;29;19927;-73
2023/01/27 11:21:53;;;;;;;;;;;;;;;9.79;69.15;97681.13;4901421;29;19926;-74
2023/01/27 11:24:41;;;;;;;;;;;;;;;9.76;69.01;97674.41;4901382;29;19919;-73
2023/01/27 11:27:16;;;;;;;;;;;;;;;9.75;69.17;97677.16;4898075;29;19962;-74
2023/01/27 11:29:44;;;;;;;;;;;;;;;9.73;69.20;97679.06;4898110;29;19924;-73
2023/01/27 11:32:13;;;;;;;;;;;;;;;9.70;69.23;97666.31;4897946;29;19920;-73
2023/01/27 11:34:45;;;;;;;;;;;;;;;9.70;69.26;97674.13;4882429;29;19942;-75
2023/01/27 11:37:20;;;;;;;;;;;;;;;9.71;69.23;97670.56;4882235;29;19919;-74
2023/01/27 11:39:46;;;;;;;;;;;;;;;9.72;69.24;97661.78;4882297;29;20463;-75
2023/01/27 11:42:11;;;;;;;;;;;;;;;9.73;68.85;97661.66;4882338;29;19919;-74
2023/01/27 11:44:36;;;;;;;;;;;;;;;9.75;69.36;97649.28;4882210;29;19967;-74
2023/01/27 11:47:02;;;;;;;;;;;;;;;9.78;68.92;97653.41;4909628;29;19919;-73
2023/01/27 11:49:31;;;;;;;;;;;;;;;9.81;69.30;97647.94;4919419;29;20354;-75
2023/01/27 11:52:04;;;;;;;;;;;;;;;9.83;69.01;97660.81;4919721;29;19919;-73
2023/01/27 11:54:33;;;;;;;;;;;;;;;9.86;68.77;97655.34;4919730;29;19918;-73
2023/01/27 11:56:58;;;;;;;;;;;;;;;9.86;68.86;97648.31;4919570;29;19918;-74
2023/01/27 11:59:28;;;;;;;;;;;;;;;9.88;68.73;97656.84;4935333;29;19933;-75
2023/01/27 12:02:05;;;;;;;;;;;;;;;9.88;68.83;97662.06;4919373;29;20056;-74
2023/01/27 12:04:45;;;;;;;;;;;;;;;9.87;68.85;97652.59;4971670;28;19924;-74
2023/01/27 12:07:15;;;;;;;;;;;;;;;9.90;68.73;97656.72;4997328;28;19917;-75
2023/01/27 12:09:40;;;;;;;;;;;;;;;9.90;69.01;97667.94;4980911;28;19918;-74
2023/01/27 12:12:14;;;;;;;;;;;;;;;9.90;68.87;97657.53;4997339;28;20343;-74
2023/01/27 12:14:49;;;;;;;;;;;;;;;9.89;68.89;97658.47;5014573;28;20415;-73
2023/01/27 12:17:17;;;;;;;;;;;;;;;9.89;68.77;97657.66;5014839;28;19929;-74
2023/01/27 12:19:42;;;;;;;;;;;;;;;9.90;68.81;97667.13;5014818;28;19978;-73
2023/01/27 12:22:08;;;;;;;;;;;;;;;9.89;68.83;97665.47;5014562;28;19917;-74
2023/01/27 12:24:35;;;;;;;;;;;;;;;9.89;68.73;97665.47;4997015;28;20412;-72
2023/01/27 12:27:01;;;;;;;;;;;;;;;9.88;68.81;97666.44;4997450;28;20009;-73
2023/01/27 12:29:46;;;;;;;;;;;;;;;9.86;68.66;97671.78;4996594;28;19937;-73
2023/01/27 12:32:16;;;;;;;;;;;;;;;9.86;68.90;97670.97;4995965;28;19964;-73
2023/01/27 12:34:42;;;;;;;;;;;;;;;9.84;68.84;97672.91;4997252;28;19925;-73
2023/01/27 12:37:07;;;;;;;;;;;;;;;9.83;68.93;97668.63;4996829;28;19922;-74
2023/01/27 12:39:38;;;;;;;;;;;;;;;9.81;68.67;97668.78;4996725;28;19925;-74
2023/01/27 12:42:04;;;;;;;;;;;;;;;9.80;69.02;97663.69;5014237;28;19917;-73
2023/01/27 12:44:42;;;;;;;;;;;;;;;9.80;68.76;97661.09;5013969;28;20013;-73
2023/01/27 12:47:24;;;;;;;;;;;;;;;9.81;68.69;97658.34;4980129;28;19922;-74
2023/01/27 12:49:49;;;;;;;;;;;;;;;9.81;68.92;97653.13;4980193;28;19924;-74
2023/01/27 12:52:18;;;;;;;;;;;;;;;9.83;68.76;97656.41;5013953;28;20016;-74
2023/01/27 12:54:44;;;;;;;;;;;;;;;9.83;68.72;97651.22;4996532;28;19918;-73
2023/01/27 12:57:19;;;;;;;;;;;;;;;9.86;68.85;97657.94;4996315;28;19918;-74
2023/01/27 12:59:46;;;;;;;;;;;;;;;9.87;68.72;97649.97;4996860;28;19922;-72
2023/01/27 13:02:15;;;;;;;;;;;;;;;9.88;68.73;97648.19;5014142;28;19948;-74
2023/01/27 13:04:40;;;;;;;;;;;;;;;9.89;68.51;97649.84;5013643;28;19994;-74
2023/01/27 13:07:07;;;;;;;;;;;;;;;9.89;68.27;97645.44;4979951;28;19964;-73
2023/01/27 13:09:33;;;;;;;;;;;;;;;9.90;68.55;97646.28;4996268;28;20011;-74
2023/01/27 13:12:11;;;;;;;;;;;;;;;9.88;68.50;97645.56;4996123;28;20404;-73
2023/01/27 13:14:38;;;;;;;;;;;;;;;9.87;68.40;97649.97;4995961;28;19928;-73
2023/01/27 13:17:03;;;;;;;;;;;;;;;9.85;68.33;97649.31;4978990;28;19921;-74
2023/01/27 13:19:37;;;;;;;;;;;;;;;9.83;68.33;97650.41;4995940;28;20312;-75
2023/01/27 13:22:03;;;;;;;;;;;;;;;9.81;68.49;97647.94;4996014;28;19917;-73
2023/01/27 13:24:38;;;;;;;;;;;;;;;9.79;68.52;97644.66;4995914;28;19968;-73
2023/01/27 13:27:04;;;;;;;;;;;;;;;9.74;68.59;97644.22;4995712;28;19917;-74
2023/01/27 13:29:30;;;;;;;;;;;;;;;9.71;68.44;97645.34;4995899;28;20012;-73